sensor_id;sensor_type;location;lat;lon;timestamp;pressure;altitude;pressure_sealevel;temperature;humidity
30463;BME280;17256;43.618;25.336;2023-11-19T00:01:40;100337.66;;;4.75;nan
30463;BME280;17256;43.618;25.336;2023-11-19T00:04:05;100442.13;;;5.31;nan
30463;BME280;17256;43.618;25.336;2023-11-19T00:06:31;100389.00;;;4.94;nan
30463;BME280;17256;43.618;25.336;2023-11-19T00:08:56;100442.44;;;5.12;nan
30463;BME280;17256;43.618;25.336;2023-11-19T00:11:22;100415.22;;;5.12;nan
30463;BME280;17256;43.618;25.336;2023-11-19T00:13:47;100419.66;;;5.05;nan
30463;BME280;17256;43.618;25.336;2023-11-19T00:16:13;100427.47;;;5.16;nan
30463;BME280;17256;43.618;25.336;2023-11-19T00:18:39;100446.19;;;5.11;nan
30463;BME280;17256;43.618;25.336;2023-11-19T00:21:05;100471.53;;;5.19;nan
30463;BME280;17256;43.618;25.336;2023-11-19T00:25:56;100399.53;;;4.89;nan
30463;BME280;17256;43.618;25.336;2023-11-19T00:28:45;100503.41;;;5.35;nan
30463;BME280;17256;43.618;25.336;2023-11-19T00:31:13;100436.31;;;5.02;nan
30463;BME280;17256;43.618;25.336;2023-11-19T00:33:38;100425.63;;;5.24;nan
30463;BME280;17256;43.618;25.336;2023-11-19T00:36:05;100411.66;;;5.03;nan
30463;BME280;17256;43.618;25.336;2023-11-19T00:40:56;100379.31;;;5.16;nan
30463;BME280;17256;43.618;25.336;2023-11-19T00:43:21;100427.50;;;5.32;nan
30463;BME280;17256;43.618;25.336;2023-11-19T00:45:47;100343.59;;;4.95;nan
30463;BME280;17256;43.618;25.336;2023-11-19T00:48:16;100466.13;;;5.36;nan
30463;BME280;17256;43.618;25.336;2023-11-19T00:53:10;100422.19;;;5.06;nan
30463;BME280;17256;43.618;25.336;2023-11-19T00:55:35;100414.53;;;5.18;nan
30463;BME280;17256;43.618;25.336;2023-11-19T00:58:01;100407.91;;;5.04;nan
30463;BME280;17256;43.618;25.336;2023-11-19T01:00:28;100489.63;;;5.37;nan
30463;BME280;17256;43.618;25.336;2023-11-19T01:02:54;100419.84;;;5.28;nan
30463;BME280;17256;43.618;25.336;2023-11-19T01:05:20;100447.06;;;5.44;nan
30463;BME280;17256;43.618;25.336;2023-11-19T01:07:50;119658.63;;;23.45;100.00
30463;BME280;17256;43.618;25.336;2023-11-19T01:10:18;100403.31;;;5.37;nan
30463;BME280;17256;43.618;25.336;2023-11-19T01:12:44;100428.69;;;5.30;nan
30463;BME280;17256;43.618;25.336;2023-11-19T01:15:09;100449.63;;;5.45;nan
30463;BME280;17256;43.618;25.336;2023-11-19T01:17:37;100431.56;;;5.28;nan
30463;BME280;17256;43.618;25.336;2023-11-19T01:20:03;100443.84;;;5.32;nan
30463;BME280;17256;43.618;25.336;2023-11-19T01:22:33;100486.56;;;5.64;nan
30463;BME280;17256;43.618;25.336;2023-11-19T01:24:58;100407.59;;;5.23;nan
30463;BME280;17256;43.618;25.336;2023-11-19T01:27:24;100442.47;;;5.28;nan
30463;BME280;17256;43.618;25.336;2023-11-19T01:29:50;100419.34;;;5.24;nan
30463;BME280;17256;43.618;25.336;2023-11-19T01:32:15;100449.63;;;5.45;nan
30463;BME280;17256;43.618;25.336;2023-11-19T01:34:41;100509.72;;;5.68;nan
30463;BME280;17256;43.618;25.336;2023-11-19T01:37:07;100475.50;;;5.57;nan
30463;BME280;17256;43.618;25.336;2023-11-19T01:39:34;100440.25;;;5.40;nan
30463;BME280;17256;43.618;25.336;2023-11-19T01:42:00;100416.59;;;5.32;nan
30463;BME280;17256;43.618;25.336;2023-11-19T01:44:25;100425.97;;;5.54;nan
30463;BME280;17256;43.618;25.336;2023-11-19T01:46:51;100464.28;;;5.52;nan
30463;BME280;17256;43.618;25.336;2023-11-19T01:49:18;100387.16;;;5.11;nan
30463;BME280;17256;43.618;25.336;2023-11-19T01:51:46;100475.66;;;5.64;nan
30463;BME280;17256;43.618;25.336;2023-11-19T01:54:12;100455.25;;;5.52;nan
30463;BME280;17256;43.618;25.336;2023-11-19T01:56:39;100439.75;;;5.36;nan
30463;BME280;17256;43.618;25.336;2023-11-19T01:59:07;100453.88;;;5.32;nan
30463;BME280;17256;43.618;25.336;2023-11-19T02:01:34;100469.03;;;5.34;nan
30463;BME280;17256;43.618;25.336;2023-11-19T02:04:03;100495.94;;;5.53;nan
30463;BME280;17256;43.618;25.336;2023-11-19T02:06:30;100452.50;;;5.28;nan
30463;BME280;17256;43.618;25.336;2023-11-19T02:08:57;100422.53;;;5.19;nan
30463;BME280;17256;43.618;25.336;2023-11-19T02:11:22;100458.13;;;5.34;nan
30463;BME280;17256;43.618;25.336;2023-11-19T02:13:49;100387.97;;;4.95;nan
30463;BME280;17256;43.618;25.336;2023-11-19T02:16:15;100467.84;;;5.29;nan
30463;BME280;17256;43.618;25.336;2023-11-19T02:18:40;100478.72;;;5.37;nan
30463;BME280;17256;43.618;25.336;2023-11-19T02:21:06;100486.22;;;5.35;nan
30463;BME280;17256;43.618;25.336;2023-11-19T02:23:31;100451.63;;;5.11;nan
30463;BME280;17256;43.618;25.336;2023-11-19T02:31:25;100499.66;;;5.36;nan
30463;BME280;17256;43.618;25.336;2023-11-19T02:33:52;100432.06;;;4.99;nan
30463;BME280;17256;43.618;25.336;2023-11-19T02:38:43;100468.81;;;5.11;nan
30463;BME280;17256;43.618;25.336;2023-11-19T02:41:09;100520.94;;;5.33;nan
30463;BME280;17256;43.618;25.336;2023-11-19T02:43:36;100465.59;;;5.08;nan
30463;BME280;17256;43.618;25.336;2023-11-19T02:46:03;100465.41;;;5.09;nan
30463;BME280;17256;43.618;25.336;2023-11-19T02:48:38;64120.19;;;-144.27;100.00
30463;BME280;17256;43.618;25.336;2023-11-19T02:51:06;100403.63;;;4.85;nan
30463;BME280;17256;43.618;25.336;2023-11-19T02:53:35;100494.50;;;5.17;nan
30463;BME280;17256;43.618;25.336;2023-11-19T02:56:00;100466.09;;;5.03;nan
30463;BME280;17256;43.618;25.336;2023-11-19T02:58:31;100525.53;;;5.32;nan
30463;BME280;17256;43.618;25.336;2023-11-19T03:00:57;100483.09;;;4.97;nan
30463;BME280;17256;43.618;25.336;2023-11-19T03:03:27;100510.50;;;5.20;nan
30463;BME280;17256;43.618;25.336;2023-11-19T03:06:07;100451.75;;;4.85;nan
30463;BME280;17256;43.618;25.336;2023-11-19T03:08:35;100439.84;;;4.78;nan
30463;BME280;17256;43.618;25.336;2023-11-19T03:11:01;100503.69;;;5.16;nan
30463;BME280;17256;43.618;25.336;2023-11-19T03:13:27;100419.09;;;4.85;nan
30463;BME280;17256;43.618;25.336;2023-11-19T03:15:53;100468.91;;;4.85;nan
30463;BME280;17256;43.618;25.336;2023-11-19T03:18:19;100500.47;;;5.12;nan
30463;BME280;17256;43.618;25.336;2023-11-19T03:20:46;100461.94;;;4.83;nan
30463;BME280;17256;43.618;25.336;2023-11-19T03:23:13;100528.03;;;5.17;nan
30463;BME280;17256;43.618;25.336;2023-11-19T03:25:39;100483.72;;;4.83;nan
30463;BME280;17256;43.618;25.336;2023-11-19T03:28:04;100388.44;;;4.67;nan
30463;BME280;17256;43.618;25.336;2023-11-19T03:30:30;100458.16;;;4.68;nan
30463;BME280;17256;43.618;25.336;2023-11-19T03:32:56;100454.38;;;4.60;nan
30463;BME280;17256;43.618;25.336;2023-11-19T03:35:30;100486.94;;;4.86;nan
30463;BME280;17256;43.618;25.336;2023-11-19T03:37:56;100497.56;;;4.98;nan
30463;BME280;17256;43.618;25.336;2023-11-19T03:40:23;100482.44;;;5.19;nan
30463;BME280;17256;43.618;25.336;2023-11-19T03:42:50;100489.31;;;4.81;nan
30463;BME280;17256;43.618;25.336;2023-11-19T03:45:16;100498.16;;;4.83;nan
30463;BME280;17256;43.618;25.336;2023-11-19T03:47:42;100546.41;;;5.15;nan
30463;BME280;17256;43.618;25.336;2023-11-19T03:50:07;100506.88;;;4.95;nan
30463;BME280;17256;43.618;25.336;2023-11-19T03:52:36;100523.75;;;4.99;nan
30463;BME280;17256;43.618;25.336;2023-11-19T03:57:54;100445.84;;;4.98;nan
30463;BME280;17256;43.618;25.336;2023-11-19T04:00:20;100512.28;;;4.79;nan
30463;BME280;17256;43.618;25.336;2023-11-19T04:02:46;100391.31;;;4.65;nan
30463;BME280;17256;43.618;25.336;2023-11-19T04:05:12;100524.94;;;4.96;nan
30463;BME280;17256;43.618;25.336;2023-11-19T04:07:38;100564.25;;;5.10;nan
30463;BME280;17256;43.618;25.336;2023-11-19T04:10:04;100522.31;;;4.78;nan
30463;BME280;17256;43.618;25.336;2023-11-19T04:12:29;100445.44;;;4.84;nan
30463;BME280;17256;43.618;25.336;2023-11-19T04:14:55;100515.69;;;4.81;nan
30463;BME280;17256;43.618;25.336;2023-11-19T04:17:21;100550.88;;;4.82;nan
30463;BME280;17256;43.618;25.336;2023-11-19T04:19:48;100576.91;;;4.85;nan
30463;BME280;17256;43.618;25.336;2023-11-19T04:22:14;100514.97;;;4.45;nan
30463;BME280;17256;43.618;25.336;2023-11-19T04:24:39;64120.19;;;-144.27;100.00
30463;BME280;17256;43.618;25.336;2023-11-19T04:27:06;100529.38;;;4.63;nan
30463;BME280;17256;43.618;25.336;2023-11-19T04:29:31;100544.72;;;4.72;nan
30463;BME280;17256;43.618;25.336;2023-11-19T04:31:57;100507.59;;;4.55;nan
30463;BME280;17256;43.618;25.336;2023-11-19T04:34:24;100539.28;;;4.72;nan
30463;BME280;17256;43.618;25.336;2023-11-19T04:36:49;100532.94;;;4.98;nan
30463;BME280;17256;43.618;25.336;2023-11-19T04:39:14;100614.03;;;4.94;nan
30463;BME280;17256;43.618;25.336;2023-11-19T04:41:51;100573.69;;;4.89;nan
30463;BME280;17256;43.618;25.336;2023-11-19T04:44:19;100577.16;;;4.66;nan
30463;BME280;17256;43.618;25.336;2023-11-19T04:46:46;100618.75;;;4.84;nan
30463;BME280;17256;43.618;25.336;2023-11-19T04:49:12;100633.78;;;4.96;nan
30463;BME280;17256;43.618;25.336;2023-11-19T04:51:39;100619.97;;;4.89;nan
30463;BME280;17256;43.618;25.336;2023-11-19T04:54:05;100622.81;;;4.80;nan
30463;BME280;17256;43.618;25.336;2023-11-19T04:56:32;100548.91;;;4.58;nan
30463;BME280;17256;43.618;25.336;2023-11-19T04:58:57;100592.63;;;4.65;nan
30463;BME280;17256;43.618;25.336;2023-11-19T05:01:23;100638.81;;;4.83;nan
30463;BME280;17256;43.618;25.336;2023-11-19T05:03:48;100654.66;;;4.87;nan
30463;BME280;17256;43.618;25.336;2023-11-19T05:06:14;100649.16;;;4.79;nan
30463;BME280;17256;43.618;25.336;2023-11-19T05:08:40;100526.53;;;4.39;nan
30463;BME280;17256;43.618;25.336;2023-11-19T05:11:08;100607.03;;;4.57;nan
30463;BME280;17256;43.618;25.336;2023-11-19T05:13:37;100637.22;;;4.72;nan
30463;BME280;17256;43.618;25.336;2023-11-19T05:16:03;100614.13;;;4.50;nan
30463;BME280;17256;43.618;25.336;2023-11-19T05:18:29;100641.50;;;4.75;nan
30463;BME280;17256;43.618;25.336;2023-11-19T05:20:54;100619.09;;;4.55;nan
30463;BME280;17256;43.618;25.336;2023-11-19T05:23:20;100569.16;;;4.64;nan
30463;BME280;17256;43.618;25.336;2023-11-19T05:25:45;100468.97;;;3.91;nan
30463;BME280;17256;43.618;25.336;2023-11-19T05:28:11;100607.56;;;4.61;nan
30463;BME280;17256;43.618;25.336;2023-11-19T05:30:36;100613.84;;;4.61;nan
30463;BME280;17256;43.618;25.336;2023-11-19T05:33:02;100592.91;;;4.54;nan
30463;BME280;17256;43.618;25.336;2023-11-19T05:35:28;100599.44;;;4.43;nan
30463;BME280;17256;43.618;25.336;2023-11-19T05:37:53;100647.56;;;4.69;nan
30463;BME280;17256;43.618;25.336;2023-11-19T05:40:19;100615.03;;;4.59;nan
30463;BME280;17256;43.618;25.336;2023-11-19T05:42:45;100658.34;;;4.78;nan
30463;BME280;17256;43.618;25.336;2023-11-19T05:45:11;100598.84;;;4.49;nan
30463;BME280;17256;43.618;25.336;2023-11-19T05:47:37;100589.41;;;4.44;nan
30463;BME280;17256;43.618;25.336;2023-11-19T05:50:03;100617.25;;;4.63;nan
30463;BME280;17256;43.618;25.336;2023-11-19T05:52:31;100651.19;;;4.77;nan
30463;BME280;17256;43.618;25.336;2023-11-19T05:55:01;100651.59;;;4.64;nan
30463;BME280;17256;43.618;25.336;2023-11-19T05:57:30;64120.19;;;22.15;100.00
30463;BME280;17256;43.618;25.336;2023-11-19T05:59:55;100588.28;;;4.46;nan
30463;BME280;17256;43.618;25.336;2023-11-19T06:02:21;100630.50;;;4.58;nan
30463;BME280;17256;43.618;25.336;2023-11-19T06:04:47;100621.81;;;4.55;nan
30463;BME280;17256;43.618;25.336;2023-11-19T06:07:13;100643.59;;;4.63;nan
30463;BME280;17256;43.618;25.336;2023-11-19T06:09:40;100600.63;;;4.41;nan
30463;BME280;17256;43.618;25.336;2023-11-19T06:12:06;100676.38;;;4.53;nan
30463;BME280;17256;43.618;25.336;2023-11-19T06:14:32;100625.69;;;4.26;nan
30463;BME280;17256;43.618;25.336;2023-11-19T06:16:58;100663.69;;;4.44;nan
30463;BME280;17256;43.618;25.336;2023-11-19T06:19:24;100695.13;;;4.64;nan
30463;BME280;17256;43.618;25.336;2023-11-19T06:21:52;100640.19;;;4.61;nan
30463;BME280;17256;43.618;25.336;2023-11-19T06:24:17;100664.44;;;4.72;nan
30463;BME280;17256;43.618;25.336;2023-11-19T06:26:43;100650.09;;;4.44;nan
30463;BME280;17256;43.618;25.336;2023-11-19T06:29:19;100665.38;;;4.63;nan
30463;BME280;17256;43.618;25.336;2023-11-19T06:31:45;100635.28;;;4.39;nan
30463;BME280;17256;43.618;25.336;2023-11-19T06:34:14;100667.72;;;4.58;nan
30463;BME280;17256;43.618;25.336;2023-11-19T06:36:39;100633.78;;;4.44;nan
30463;BME280;17256;43.618;25.336;2023-11-19T06:39:05;100692.50;;;4.73;nan
30463;BME280;17256;43.618;25.336;2023-11-19T06:41:33;100702.63;;;4.88;nan
30463;BME280;17256;43.618;25.336;2023-11-19T06:43:58;100625.16;;;4.75;nan
30463;BME280;17256;43.618;25.336;2023-11-19T06:46:25;100636.13;;;4.91;nan
30463;BME280;17256;43.618;25.336;2023-11-19T06:48:50;100603.59;;;4.81;nan
30463;BME280;17256;43.618;25.336;2023-11-19T06:51:16;100648.47;;;4.77;nan
30463;BME280;17256;43.618;25.336;2023-11-19T06:53:45;100671.56;;;4.99;nan
30463;BME280;17256;43.618;25.336;2023-11-19T06:56:21;100583.75;;;4.63;nan
30463;BME280;17256;43.618;25.336;2023-11-19T06:58:47;100651.91;;;4.87;nan
30463;BME280;17256;43.618;25.336;2023-11-19T07:01:25;100665.84;;;5.18;nan
30463;BME280;17256;43.618;25.336;2023-11-19T07:03:50;100731.91;;;5.54;nan
30463;BME280;17256;43.618;25.336;2023-11-19T07:06:16;100704.56;;;5.30;nan
30463;BME280;17256;43.618;25.336;2023-11-19T07:08:42;100736.69;;;5.52;nan
30463;BME280;17256;43.618;25.336;2023-11-19T07:11:10;100726.75;;;5.43;nan
30463;BME280;17256;43.618;25.336;2023-11-19T07:13:37;100683.28;;;5.25;nan
30463;BME280;17256;43.618;25.336;2023-11-19T07:16:03;100694.03;;;5.35;nan
30463;BME280;17256;43.618;25.336;2023-11-19T07:18:29;100752.56;;;5.99;nan
30463;BME280;17256;43.618;25.336;2023-11-19T07:20:56;100694.97;;;5.60;nan
30463;BME280;17256;43.618;25.336;2023-11-19T07:23:22;100697.69;;;6.02;nan
30463;BME280;17256;43.618;25.336;2023-11-19T07:25:48;100704.34;;;5.57;nan
30463;BME280;17256;43.618;25.336;2023-11-19T07:28:15;100660.72;;;5.49;nan
30463;BME280;17256;43.618;25.336;2023-11-19T07:30:42;100736.44;;;5.80;nan
30463;BME280;17256;43.618;25.336;2023-11-19T07:33:07;100628.34;;;5.38;nan
30463;BME280;17256;43.618;25.336;2023-11-19T07:35:33;100769.78;;;6.16;nan
30463;BME280;17256;43.618;25.336;2023-11-19T07:37:59;100668.25;;;5.55;nan
30463;BME280;17256;43.618;25.336;2023-11-19T07:40:25;100701.34;;;5.85;nan
30463;BME280;17256;43.618;25.336;2023-11-19T07:42:50;100625.66;;;5.46;nan
30463;BME280;17256;43.618;25.336;2023-11-19T07:45:16;100762.16;;;6.28;nan
30463;BME280;17256;43.618;25.336;2023-11-19T07:47:43;100685.34;;;5.82;nan
30463;BME280;17256;43.618;25.336;2023-11-19T07:50:11;100550.75;;;5.67;nan
30463;BME280;17256;43.618;25.336;2023-11-19T07:52:39;100729.59;;;6.34;nan
30463;BME280;17256;43.618;25.336;2023-11-19T07:55:05;100779.25;;;6.78;nan
30463;BME280;17256;43.618;25.336;2023-11-19T07:57:31;100742.56;;;6.89;nan
30463;BME280;17256;43.618;25.336;2023-11-19T07:59:57;100767.63;;;7.09;nan
30463;BME280;17256;43.618;25.336;2023-11-19T08:02:39;100659.19;;;6.54;nan
30463;BME280;17256;43.618;25.336;2023-11-19T08:05:05;100702.63;;;6.88;nan
30463;BME280;17256;43.618;25.336;2023-11-19T08:07:31;100678.25;;;6.78;nan
30463;BME280;17256;43.618;25.336;2023-11-19T08:09:56;100739.28;;;7.10;nan
30463;BME280;17256;43.618;25.336;2023-11-19T08:12:22;100671.09;;;6.77;nan
30463;BME280;17256;43.618;25.336;2023-11-19T08:14:48;100740.16;;;7.10;nan
30463;BME280;17256;43.618;25.336;2023-11-19T08:17:14;100752.44;;;7.23;nan
30463;BME280;17256;43.618;25.336;2023-11-19T08:19:41;100682.50;;;6.97;nan
30463;BME280;17256;43.618;25.336;2023-11-19T08:22:06;100757.44;;;7.58;nan
30463;BME280;17256;43.618;25.336;2023-11-19T08:24:32;100666.81;;;6.83;nan
30463;BME280;17256;43.618;25.336;2023-11-19T08:26:57;100684.00;;;7.08;nan
30463;BME280;17256;43.618;25.336;2023-11-19T08:29:23;100684.31;;;7.21;nan
30463;BME280;17256;43.618;25.336;2023-11-19T08:31:48;100694.13;;;7.47;nan
30463;BME280;17256;43.618;25.336;2023-11-19T08:34:14;100765.97;;;8.02;nan
30463;BME280;17256;43.618;25.336;2023-11-19T08:36:41;100763.63;;;8.22;nan
30463;BME280;17256;43.618;25.336;2023-11-19T08:39:06;100725.88;;;7.87;nan
30463;BME280;17256;43.618;25.336;2023-11-19T08:41:33;100760.06;;;8.22;nan
30463;BME280;17256;43.618;25.336;2023-11-19T08:43:59;100723.13;;;8.18;nan
30463;BME280;17256;43.618;25.336;2023-11-19T08:46:25;100662.63;;;7.90;nan
30463;BME280;17256;43.618;25.336;2023-11-19T08:48:51;100724.78;;;8.27;nan
30463;BME280;17256;43.618;25.336;2023-11-19T08:51:17;100766.56;;;8.52;nan
30463;BME280;17256;43.618;25.336;2023-11-19T08:53:42;100693.41;;;8.60;nan
30463;BME280;17256;43.618;25.336;2023-11-19T08:56:08;100528.81;;;7.88;nan
30463;BME280;17256;43.618;25.336;2023-11-19T08:58:33;100543.88;;;8.07;nan
30463;BME280;17256;43.618;25.336;2023-11-19T09:00:59;100713.06;;;8.41;nan
30463;BME280;17256;43.618;25.336;2023-11-19T09:03:25;100700.97;;;8.58;nan
30463;BME280;17256;43.618;25.336;2023-11-19T09:05:55;100601.97;;;8.32;nan
30463;BME280;17256;43.618;25.336;2023-11-19T09:08:20;100694.69;;;8.73;nan
30463;BME280;17256;43.618;25.336;2023-11-19T09:10:46;100685.84;;;8.85;nan
30463;BME280;17256;43.618;25.336;2023-11-19T09:13:11;100695.03;;;9.07;nan
30463;BME280;17256;43.618;25.336;2023-11-19T09:15:37;100738.19;;;9.05;nan
30463;BME280;17256;43.618;25.336;2023-11-19T09:18:03;100717.94;;;8.91;nan
30463;BME280;17256;43.618;25.336;2023-11-19T09:20:30;100760.81;;;8.84;nan
30463;BME280;17256;43.618;25.336;2023-11-19T09:23:03;100727.94;;;8.70;nan
30463;BME280;17256;43.618;25.336;2023-11-19T09:25:28;100718.97;;;8.76;nan
30463;BME280;17256;43.618;25.336;2023-11-19T09:27:54;100671.91;;;8.57;nan
30463;BME280;17256;43.618;25.336;2023-11-19T09:30:19;100692.34;;;8.47;nan
30463;BME280;17256;43.618;25.336;2023-11-19T09:32:45;100692.72;;;8.44;nan
30463;BME280;17256;43.618;25.336;2023-11-19T09:35:11;100735.41;;;8.90;nan
30463;BME280;17256;43.618;25.336;2023-11-19T09:37:39;100595.06;;;8.21;nan
30463;BME280;17256;43.618;25.336;2023-11-19T09:40:05;100694.88;;;9.23;nan
30463;BME280;17256;43.618;25.336;2023-11-19T09:42:42;100744.84;;;9.40;nan
30463;BME280;17256;43.618;25.336;2023-11-19T09:45:13;100709.75;;;9.06;nan
30463;BME280;17256;43.618;25.336;2023-11-19T09:47:40;100688.28;;;8.80;nan
30463;BME280;17256;43.618;25.336;2023-11-19T09:50:05;100683.66;;;8.81;nan
30463;BME280;17256;43.618;25.336;2023-11-19T09:52:31;100607.31;;;8.25;nan
30463;BME280;17256;43.618;25.336;2023-11-19T09:54:57;100705.19;;;8.84;nan
30463;BME280;17256;43.618;25.336;2023-11-19T09:57:22;100691.63;;;9.05;nan
30463;BME280;17256;43.618;25.336;2023-11-19T09:59:49;100669.41;;;9.15;nan
30463;BME280;17256;43.618;25.336;2023-11-19T10:02:16;100695.50;;;9.11;nan
30463;BME280;17256;43.618;25.336;2023-11-19T10:04:42;100725.19;;;9.37;nan
30463;BME280;17256;43.618;25.336;2023-11-19T10:07:10;100709.59;;;9.22;nan
30463;BME280;17256;43.618;25.336;2023-11-19T10:09:35;100728.25;;;9.42;nan
30463;BME280;17256;43.618;25.336;2023-11-19T10:12:01;100695.81;;;9.31;nan
30463;BME280;17256;43.618;25.336;2023-11-19T10:14:27;100691.84;;;9.48;nan
30463;BME280;17256;43.618;25.336;2023-11-19T10:16:54;100695.00;;;9.66;nan
30463;BME280;17256;43.618;25.336;2023-11-19T10:19:21;100691.84;;;9.48;nan
30463;BME280;17256;43.618;25.336;2023-11-19T10:21:46;100718.19;;;9.34;nan
30463;BME280;17256;43.618;25.336;2023-11-19T10:24:12;100687.31;;;9.25;nan
30463;BME280;17256;43.618;25.336;2023-11-19T10:26:38;100633.22;;;8.90;nan
30463;BME280;17256;43.618;25.336;2023-11-19T10:29:04;100695.81;;;9.31;nan
30463;BME280;17256;43.618;25.336;2023-11-19T10:31:29;100668.19;;;9.47;nan
30463;BME280;17256;43.618;25.336;2023-11-19T10:33:55;100640.69;;;9.40;nan
30463;BME280;17256;43.618;25.336;2023-11-19T10:36:21;100693.41;;;9.72;nan
30463;BME280;17256;43.618;25.336;2023-11-19T10:38:56;100663.06;;;9.73;nan
30463;BME280;17256;43.618;25.336;2023-11-19T10:41:32;100694.78;;;9.97;nan
30463;BME280;17256;43.618;25.336;2023-11-19T10:43:58;100705.84;;;9.89;nan
30463;BME280;17256;43.618;25.336;2023-11-19T10:46:36;100682.31;;;9.95;nan
30463;BME280;17256;43.618;25.336;2023-11-19T10:49:03;100651.78;;;9.83;nan
30463;BME280;17256;43.618;25.336;2023-11-19T10:51:29;100703.00;;;9.97;nan
30463;BME280;17256;43.618;25.336;2023-11-19T10:53:58;100682.31;;;9.95;nan
30463;BME280;17256;43.618;25.336;2023-11-19T10:56:28;100658.41;;;9.74;nan
30463;BME280;17256;43.618;25.336;2023-11-19T10:58:56;100647.97;;;9.48;nan
30463;BME280;17256;43.618;25.336;2023-11-19T11:01:27;100705.78;;;9.82;nan
30463;BME280;17256;43.618;25.336;2023-11-19T11:03:59;100696.28;;;10.00;nan
30463;BME280;17256;43.618;25.336;2023-11-19T11:06:27;100691.25;;;9.67;nan
30463;BME280;17256;43.618;25.336;2023-11-19T11:08:54;100679.25;;;9.39;nan
30463;BME280;17256;43.618;25.336;2023-11-19T11:11:20;100650.78;;;9.40;nan
30463;BME280;17256;43.618;25.336;2023-11-19T11:13:53;100626.63;;;9.29;nan
30463;BME280;17256;43.618;25.336;2023-11-19T11:16:22;100685.25;;;9.78;nan
30463;BME280;17256;43.618;25.336;2023-11-19T11:18:49;100651.13;;;9.66;nan
30463;BME280;17256;43.618;25.336;2023-11-19T11:21:17;100650.06;;;9.82;nan
30463;BME280;17256;43.618;25.336;2023-11-19T11:24:09;100682.53;;;9.78;nan
30463;BME280;17256;43.618;25.336;2023-11-19T11:32:39;100663.84;;;9.52;nan
30463;BME280;17256;43.618;25.336;2023-11-19T11:38:21;100647.84;;;9.56;nan
30463;BME280;17256;43.618;25.336;2023-11-19T11:41:16;100682.34;;;9.65;nan
30463;BME280;17256;43.618;25.336;2023-11-19T11:43:52;100659.78;;;9.48;nan
30463;BME280;17256;43.618;25.336;2023-11-19T11:49:08;100673.63;;;9.76;nan
30463;BME280;17256;43.618;25.336;2023-11-19T11:57:06;100667.75;;;9.79;nan
30463;BME280;17256;43.618;25.336;2023-11-19T12:02:08;100665.81;;;9.59;nan
30463;BME280;17256;43.618;25.336;2023-11-19T12:04:35;100589.59;;;9.03;nan
30463;BME280;17256;43.618;25.336;2023-11-19T12:07:05;100659.97;;;9.47;nan
30463;BME280;17256;43.618;25.336;2023-11-19T12:09:32;100656.84;;;9.35;nan
30463;BME280;17256;43.618;25.336;2023-11-19T12:17:48;100632.88;;;9.22;nan
30463;BME280;17256;43.618;25.336;2023-11-19T12:20:18;100639.22;;;9.23;nan
30463;BME280;17256;43.618;25.336;2023-11-19T12:22:46;100623.78;;;9.37;nan
30463;BME280;17256;43.618;25.336;2023-11-19T12:25:12;100543.44;;;8.85;nan
30463;BME280;17256;43.618;25.336;2023-11-19T12:27:49;100624.94;;;9.28;nan
30463;BME280;17256;43.618;25.336;2023-11-19T12:30:25;100619.84;;;9.24;nan
30463;BME280;17256;43.618;25.336;2023-11-19T12:32:52;100567.81;;;8.95;nan
30463;BME280;17256;43.618;25.336;2023-11-19T12:35:20;100579.81;;;8.94;nan
30463;BME280;17256;43.618;25.336;2023-11-19T12:37:48;100616.63;;;9.06;nan
30463;BME280;17256;43.618;25.336;2023-11-19T12:42:40;100548.63;;;8.80;nan
30463;BME280;17256;43.618;25.336;2023-11-19T12:45:06;100528.53;;;8.73;nan
30463;BME280;17256;43.618;25.336;2023-11-19T12:47:33;100570.81;;;9.00;nan
30463;BME280;17256;43.618;25.336;2023-11-19T12:49:59;100530.56;;;9.01;nan
30463;BME280;17256;43.618;25.336;2023-11-19T12:52:25;100589.78;;;9.16;nan
30463;BME280;17256;43.618;25.336;2023-11-19T12:54:50;100552.09;;;8.89;nan
30463;BME280;17256;43.618;25.336;2023-11-19T12:57:16;100545.03;;;8.80;nan
30463;BME280;17256;43.618;25.336;2023-11-19T12:59:54;100572.25;;;8.96;nan
30463;BME280;17256;43.618;25.336;2023-11-19T13:02:20;100554.28;;;8.79;nan
30463;BME280;17256;43.618;25.336;2023-11-19T13:04:45;100538.81;;;8.71;nan
30463;BME280;17256;43.618;25.336;2023-11-19T13:07:11;100516.59;;;8.66;nan
30463;BME280;17256;43.618;25.336;2023-11-19T13:09:37;100601.13;;;9.13;nan
30463;BME280;17256;43.618;25.336;2023-11-19T13:12:12;100589.22;;;9.06;nan
30463;BME280;17256;43.618;25.336;2023-11-19T13:14:38;100574.59;;;8.84;nan
30463;BME280;17256;43.618;25.336;2023-11-19T13:17:07;100529.94;;;8.54;nan
30463;BME280;17256;43.618;25.336;2023-11-19T13:19:33;100485.06;;;8.26;nan
30463;BME280;17256;43.618;25.336;2023-11-19T13:21:59;100564.41;;;8.78;nan
30463;BME280;17256;43.618;25.336;2023-11-19T13:24:25;100572.13;;;8.89;nan
30463;BME280;17256;43.618;25.336;2023-11-19T13:26:50;100558.34;;;8.53;nan
30463;BME280;17256;43.618;25.336;2023-11-19T13:29:16;100546.06;;;8.49;nan
30463;BME280;17256;43.618;25.336;2023-11-19T13:31:41;100533.94;;;8.29;nan
30463;BME280;17256;43.618;25.336;2023-11-19T13:34:07;100580.31;;;8.45;nan
30463;BME280;17256;43.618;25.336;2023-11-19T13:36:33;100632.75;;;8.72;nan
30463;BME280;17256;43.618;25.336;2023-11-19T13:38:59;100614.78;;;8.54;nan
30463;BME280;17256;43.618;25.336;2023-11-19T13:41:28;100574.38;;;8.19;nan
30463;BME280;17256;43.618;25.336;2023-11-19T13:43:53;100590.66;;;8.35;nan
30463;BME280;17256;43.618;25.336;2023-11-19T13:46:20;100604.16;;;8.37;nan
30463;BME280;17256;43.618;25.336;2023-11-19T13:48:46;100586.75;;;8.29;nan
30463;BME280;17256;43.618;25.336;2023-11-19T13:51:11;100557.94;;;8.42;nan
30463;BME280;17256;43.618;25.336;2023-11-19T13:53:37;100594.53;;;8.18;nan
30463;BME280;17256;43.618;25.336;2023-11-19T13:56:03;100496.16;;;7.72;nan